createdAt,value
2019-05-12T00:02:11.341Z,1.77
2019-05-12T00:04:41.475Z,1.87
2019-05-12T00:07:11.676Z,2.10
2019-05-12T00:09:41.789Z,2.13
2019-05-12T00:12:11.934Z,1.83
2019-05-12T00:14:42.161Z,1.75
2019-05-12T00:17:12.391Z,1.90
2019-05-12T00:19:42.637Z,1.73
2019-05-12T00:22:14.476Z,1.77
2019-05-12T00:24:44.701Z,1.80
2019-05-12T00:27:17.938Z,2.10
2019-05-12T00:29:48.621Z,2.20
2019-05-12T00:32:19.094Z,2.03
2019-05-12T00:34:49.277Z,1.97
2019-05-12T00:37:19.487Z,2.10
2019-05-12T00:39:52.039Z,2.10
2019-05-12T00:42:22.163Z,1.97
2019-05-12T00:44:52.305Z,1.90
2019-05-12T00:47:22.416Z,1.93
2019-05-12T00:49:52.608Z,1.90
2019-05-12T00:52:22.734Z,2.00
2019-05-12T00:54:52.863Z,2.42
2019-05-12T00:57:22.948Z,1.90
2019-05-12T00:59:52.983Z,1.70
2019-05-12T01:02:23.077Z,1.70
2019-05-12T01:04:53.119Z,2.10
2019-05-12T01:07:23.303Z,2.30
2019-05-12T01:09:53.467Z,2.10
2019-05-12T01:12:23.673Z,2.00
2019-05-12T01:14:53.966Z,2.20
2019-05-12T01:17:24.177Z,2.07
2019-05-12T01:19:54.436Z,2.07
2019-05-12T01:22:24.691Z,2.20
2019-05-12T01:24:54.754Z,1.93
2019-05-12T01:27:25.035Z,1.83
2019-05-12T01:29:55.156Z,2.20
2019-05-12T01:32:32.913Z,2.03
2019-05-12T01:35:03.160Z,1.93
2019-05-12T01:37:33.366Z,1.90
2019-05-12T01:40:03.823Z,1.93
2019-05-12T01:42:34.016Z,2.17
2019-05-12T01:45:04.362Z,1.90
2019-05-12T01:47:34.552Z,1.87
2019-05-12T01:50:05.169Z,2.20
2019-05-12T01:52:35.595Z,2.33
2019-05-12T01:55:08.529Z,1.93
2019-05-12T01:57:38.880Z,2.20
2019-05-12T02:00:12.415Z,2.37
2019-05-12T02:02:42.620Z,2.40
2019-05-12T02:05:13.060Z,2.10
2019-05-12T02:07:53.905Z,2.60
2019-05-12T02:10:24.398Z,2.53
2019-05-12T02:12:54.588Z,2.60
2019-05-12T02:15:24.915Z,2.27
2019-05-12T02:17:55.015Z,2.43
2019-05-12T02:20:25.888Z,2.93
2019-05-12T02:22:58.136Z,2.50
2019-05-12T02:25:28.615Z,2.23
2019-05-12T02:27:59.141Z,1.93
2019-05-12T02:30:30.732Z,2.50
2019-05-12T02:33:00.866Z,2.27
2019-05-12T02:35:31.006Z,2.07
2019-05-12T02:38:04.398Z,2.37
2019-05-12T02:40:34.629Z,2.50
2019-05-12T02:43:05.909Z,2.43
2019-05-12T02:45:36.298Z,2.33
2019-05-12T02:48:35.790Z,2.50
2019-05-12T02:51:06.396Z,2.43
2019-05-12T02:53:36.723Z,2.77
2019-05-12T02:56:07.708Z,2.50
2019-05-12T02:58:40.620Z,2.40
2019-05-12T03:01:11.530Z,2.30
2019-05-12T03:03:45.386Z,2.50
2019-05-12T03:06:16.574Z,2.37
2019-05-12T03:08:49.957Z,2.43
2019-05-12T03:11:21.251Z,2.63
2019-05-12T03:13:51.369Z,2.37
2019-05-12T03:16:21.626Z,2.73
2019-05-12T03:18:52.542Z,2.27
2019-05-12T03:21:24.607Z,2.03
2019-05-12T03:23:55.271Z,2.20
2019-05-12T03:26:25.486Z,2.40
2019-05-12T03:28:55.758Z,2.40
2019-05-12T03:31:31.373Z,2.60
2019-05-12T03:34:00.309Z,2.60
2019-05-12T03:36:34.807Z,2.40
2019-05-12T03:39:04.244Z,2.40
2019-05-12T03:41:34.827Z,2.43
2019-05-12T03:44:05.395Z,2.30
2019-05-12T03:46:35.645Z,2.40
2019-05-12T03:49:05.950Z,2.80
2019-05-12T03:51:36.145Z,2.57
2019-05-12T03:54:06.367Z,2.60
2019-05-12T03:56:36.578Z,2.80
2019-05-12T03:59:06.983Z,2.60
2019-05-12T04:01:37.229Z,2.77
2019-05-12T04:04:07.395Z,2.37
2019-05-12T04:06:37.507Z,2.13
2019-05-12T04:09:09.688Z,2.10
2019-05-12T04:11:39.722Z,2.30
2019-05-12T04:14:09.891Z,2.90
2019-05-12T04:16:39.913Z,2.33
2019-05-12T04:19:09.839Z,2.40
2019-05-12T04:21:39.913Z,2.70
2019-05-12T04:24:09.909Z,2.30
2019-05-12T04:26:39.906Z,2.40
2019-05-12T04:29:09.925Z,2.47
2019-05-12T04:31:39.849Z,2.50
2019-05-12T04:34:14.272Z,2.60
2019-05-12T04:36:44.651Z,2.63
2019-05-12T04:39:14.725Z,2.67
2019-05-12T04:41:45.069Z,2.50
2019-05-12T04:44:15.563Z,2.33
2019-05-12T04:46:45.766Z,2.57
2019-05-12T04:49:16.089Z,2.70
2019-05-12T04:51:46.229Z,2.67
2019-05-12T04:54:16.363Z,2.40
2019-05-12T04:56:46.449Z,2.40
2019-05-12T04:59:16.468Z,2.57
2019-05-12T05:01:46.591Z,2.63
2019-05-12T05:04:16.697Z,2.50
2019-05-12T05:06:46.863Z,2.80
2019-05-12T05:09:16.886Z,2.43
2019-05-12T05:11:47.076Z,2.53
2019-05-12T05:14:17.245Z,2.57
2019-05-12T05:16:47.297Z,2.70
2019-05-12T05:19:17.418Z,2.43
2019-05-12T05:21:47.493Z,2.57
2019-05-12T05:24:17.582Z,2.30
2019-05-12T05:26:47.659Z,3.07
2019-05-12T05:29:17.677Z,2.77
2019-05-12T05:31:47.611Z,2.50
2019-05-12T05:34:17.697Z,2.70
2019-05-12T05:36:51.030Z,2.50
2019-05-12T05:39:19.522Z,2.53
2019-05-12T05:41:51.122Z,2.43
2019-05-12T05:44:21.236Z,2.30
2019-05-12T05:46:53.939Z,2.93
2019-05-12T05:49:23.799Z,2.43
2019-05-12T05:51:57.348Z,2.73
2019-05-12T05:54:31.449Z,2.70
2019-05-12T05:57:02.580Z,2.70
2019-05-12T05:59:31.621Z,2.70
2019-05-12T06:02:01.109Z,2.40
2019-05-12T06:04:31.128Z,2.87
2019-05-12T06:07:01.059Z,2.73
2019-05-12T06:09:31.083Z,3.30
2019-05-12T06:12:05.174Z,3.03
2019-05-12T06:14:34.192Z,2.50
2019-05-12T06:17:04.507Z,3.20
2019-05-12T06:19:34.681Z,2.87
2019-05-12T06:22:08.999Z,2.50
2019-05-12T06:24:36.677Z,2.63
2019-05-12T06:27:15.170Z,2.77
2019-05-12T06:29:38.785Z,2.60
2019-05-12T06:32:10.825Z,2.40
2019-05-12T06:34:40.696Z,2.67
2019-05-12T06:37:12.199Z,2.60
2019-05-12T06:39:43.581Z,2.63
2019-05-12T06:42:16.885Z,2.50
2019-05-12T06:44:49.046Z,2.90
2019-05-12T06:47:17.375Z,2.20
2019-05-12T06:49:48.826Z,2.93
2019-05-12T06:52:19.162Z,2.80
2019-05-12T06:54:51.161Z,2.65
2019-05-12T06:57:27.780Z,2.47
2019-05-12T06:59:55.049Z,2.77
2019-05-12T07:02:24.672Z,3.13
2019-05-12T07:04:59.351Z,2.90
2019-05-12T07:07:27.672Z,2.87
2019-05-12T07:10:07.964Z,2.43
2019-05-12T07:12:36.623Z,2.50
2019-05-12T07:15:03.824Z,2.40
2019-05-12T07:17:43.623Z,2.83
2019-05-12T07:20:11.439Z,2.90
2019-05-12T07:22:47.665Z,2.60
2019-05-12T07:25:13.548Z,2.90
2019-05-12T07:27:45.623Z,2.33
2019-05-12T07:30:18.799Z,2.73
2019-05-12T07:32:51.148Z,2.63
2019-05-12T07:35:20.980Z,2.73
2019-05-12T07:37:54.496Z,2.73
2019-05-12T07:40:30.111Z,2.43
2019-05-12T07:42:58.482Z,2.63
2019-05-12T07:45:29.250Z,2.67
2019-05-12T07:48:04.918Z,2.30
2019-05-12T07:50:31.399Z,2.47
2019-05-12T07:53:04.118Z,2.40
2019-05-12T07:55:34.244Z,2.40
2019-05-12T07:58:13.781Z,2.30
2019-05-12T08:00:36.507Z,2.17
2019-05-12T08:03:16.263Z,2.67
2019-05-12T08:05:38.555Z,2.20
2019-05-12T08:08:10.935Z,1.87
2019-05-12T08:10:40.759Z,2.20
2019-05-12T08:13:11.080Z,2.20
2019-05-12T08:15:45.775Z,2.10
2019-05-12T08:18:14.021Z,1.70
2019-05-12T08:20:44.359Z,1.40
2019-05-12T08:23:14.549Z,1.20
2019-05-12T08:25:44.639Z,1.40
2019-05-12T08:28:18.950Z,1.50
2019-05-12T08:30:52.002Z,1.60
2019-05-12T08:33:18.699Z,1.80
2019-05-12T08:35:48.792Z,1.40
2019-05-12T08:38:18.975Z,1.80
2019-05-12T08:40:51.103Z,1.77
2019-05-12T08:43:21.135Z,1.10
2019-05-12T08:45:53.437Z,1.30
2019-05-12T08:48:24.978Z,1.30
2019-05-12T08:50:55.051Z,1.57
2019-05-12T08:53:26.131Z,1.57
2019-05-12T08:55:56.516Z,1.97
2019-05-12T08:58:33.563Z,2.40
2019-05-12T09:00:58.649Z,1.70
2019-05-12T09:03:30.498Z,1.53
2019-05-12T09:06:00.957Z,1.87
2019-05-12T09:08:35.929Z,1.60
2019-05-12T09:11:04.168Z,1.90
2019-05-12T09:13:34.366Z,2.10
2019-05-12T09:16:04.689Z,1.60
2019-05-12T09:18:39.146Z,1.83
2019-05-12T09:21:06.810Z,1.90
2019-05-12T09:23:40.930Z,1.80
2019-05-12T09:26:08.965Z,1.87
2019-05-12T09:28:47.514Z,1.93
2019-05-12T09:31:11.123Z,2.13
2019-05-12T09:33:41.370Z,1.50
2019-05-12T09:36:19.528Z,2.00
2019-05-12T09:38:44.023Z,1.80
2019-05-12T09:41:14.185Z,2.57
2019-05-12T09:43:46.293Z,2.37
2019-05-12T09:46:17.401Z,1.77
2019-05-12T09:48:52.029Z,1.60
2019-05-12T09:51:19.795Z,1.57
2019-05-12T09:53:51.206Z,1.63
2019-05-12T09:56:23.964Z,1.83
2019-05-12T09:59:01.642Z,1.80
2019-05-12T10:01:29.223Z,1.47
2019-05-12T10:03:58.131Z,1.53
2019-05-12T10:06:28.516Z,1.50
2019-05-12T10:08:58.854Z,1.30
2019-05-12T10:11:29.179Z,1.23
2019-05-12T10:14:00.223Z,2.03
2019-05-12T10:16:33.414Z,1.40
2019-05-12T10:19:04.103Z,1.60
2019-05-12T10:21:36.017Z,1.73
2019-05-12T10:24:11.667Z,1.53
2019-05-12T10:26:48.703Z,1.80
2019-05-12T10:29:20.341Z,1.57
2019-05-12T10:31:47.210Z,1.70
2019-05-12T10:34:20.604Z,1.63
2019-05-12T10:36:53.755Z,1.87
2019-05-12T10:39:24.756Z,1.67
2019-05-12T10:41:55.174Z,1.63
2019-05-12T10:44:29.823Z,1.70
2019-05-12T10:46:59.426Z,1.50
2019-05-12T10:49:29.651Z,1.40
2019-05-12T10:51:59.934Z,1.40
2019-05-12T10:54:30.264Z,1.40
2019-05-12T10:57:00.590Z,1.60
2019-05-12T10:59:33.401Z,1.60
2019-05-12T11:02:03.560Z,1.83
2019-05-12T11:04:38.931Z,1.40
2019-05-12T11:07:05.959Z,1.60
2019-05-12T11:09:36.172Z,1.30
2019-05-12T11:12:06.659Z,1.50
2019-05-12T11:14:37.515Z,1.50
2019-05-12T11:17:09.741Z,1.60
2019-05-12T11:19:40.782Z,1.40
2019-05-12T11:22:16.598Z,1.13
2019-05-12T11:24:46.812Z,1.50
2019-05-12T11:27:18.086Z,1.40
2019-05-12T11:29:49.555Z,1.40
2019-05-12T11:32:20.011Z,1.40
2019-05-12T11:34:50.120Z,1.40
2019-05-12T11:37:20.277Z,1.40
2019-05-12T11:39:50.433Z,1.20
2019-05-12T11:42:20.571Z,1.20
2019-05-12T11:44:50.736Z,1.10
2019-05-12T11:47:24.068Z,1.10
2019-05-12T11:49:53.683Z,1.30
2019-05-12T11:52:24.131Z,1.30
2019-05-12T11:54:55.039Z,1.33
2019-05-12T11:57:29.991Z,1.20
2019-05-12T12:00:01.529Z,1.17
2019-05-12T12:02:30.622Z,1.70
2019-05-12T12:05:01.084Z,1.10
2019-05-12T12:07:33.305Z,1.23
2019-05-12T12:10:03.802Z,1.20
2019-05-12T12:12:34.598Z,1.30
2019-05-12T12:15:06.482Z,1.47
2019-05-12T12:17:36.737Z,1.33
2019-05-12T12:20:07.395Z,1.30
2019-05-12T12:22:44.734Z,1.10
2019-05-12T12:25:18.704Z,1.40
2019-05-12T12:27:48.810Z,1.03
2019-05-12T12:30:20.078Z,1.73
2019-05-12T12:32:55.404Z,1.50
2019-05-12T12:35:23.381Z,1.20
2019-05-12T12:37:54.227Z,1.20
2019-05-12T12:40:28.813Z,1.00
2019-05-12T12:42:58.634Z,1.20
2019-05-12T12:45:43.676Z,1.10
2019-05-12T12:48:14.089Z,1.47
2019-05-12T12:53:34.344Z,1.00
2019-05-12T12:56:04.690Z,1.30
2019-05-12T12:58:35.053Z,1.13
2019-05-12T13:01:06.095Z,1.07
2019-05-12T13:03:36.247Z,1.10
2019-05-12T13:06:06.534Z,1.00
2019-05-12T13:08:36.732Z,1.20
2019-05-12T13:11:07.103Z,1.00
2019-05-12T13:13:37.330Z,1.27
2019-05-12T13:16:07.608Z,0.90
2019-05-12T13:18:37.917Z,1.00
2019-05-12T13:21:08.191Z,1.10
2019-05-12T13:23:41.126Z,1.10
2019-05-12T13:26:10.413Z,1.30
2019-05-12T13:28:45.464Z,1.07
2019-05-12T13:31:15.740Z,1.17
2019-05-12T13:33:44.560Z,1.10
2019-05-12T13:36:14.824Z,1.30
2019-05-12T13:38:44.971Z,1.10
2019-05-12T13:41:19.786Z,1.07
2019-05-12T13:43:54.474Z,1.30
2019-05-12T13:46:19.053Z,1.17
2019-05-12T13:48:49.858Z,1.10
2019-05-12T13:51:21.231Z,1.00
2019-05-12T13:53:51.212Z,1.30
2019-05-12T13:56:25.792Z,1.20
2019-05-12T13:58:54.033Z,1.10
2019-05-12T14:01:24.994Z,1.10
2019-05-12T14:03:55.170Z,1.17
2019-05-12T14:06:31.989Z,0.93
2019-05-12T14:08:57.368Z,1.00
2019-05-12T14:11:27.464Z,1.20
2019-05-12T14:13:57.603Z,1.17
2019-05-12T14:16:27.747Z,1.20
2019-05-12T14:19:00.366Z,1.30
2019-05-12T14:21:33.097Z,1.20
2019-05-12T14:24:02.815Z,1.17
2019-05-12T14:26:33.392Z,1.37
2019-05-12T14:29:03.996Z,1.20
2019-05-12T14:31:37.294Z,1.00
2019-05-12T14:34:10.562Z,1.40
2019-05-12T14:36:38.160Z,1.20
2019-05-12T14:39:10.302Z,1.40
2019-05-12T14:41:44.370Z,1.20
2019-05-12T14:44:13.721Z,1.10
2019-05-12T14:46:46.240Z,1.37
2019-05-12T14:49:20.395Z,1.30
2019-05-12T14:51:47.799Z,1.10
2019-05-12T14:54:17.860Z,1.40
2019-05-12T14:56:55.510Z,1.40
2019-05-12T14:59:20.036Z,1.30
2019-05-12T15:01:59.076Z,1.30
2019-05-12T15:04:27.850Z,1.20
2019-05-12T15:06:53.916Z,1.07
2019-05-12T15:09:24.690Z,0.93
2019-05-12T15:11:54.715Z,1.10
2019-05-12T15:14:32.731Z,1.30
2019-05-12T15:16:56.712Z,1.27
2019-05-12T15:19:29.771Z,1.20
2019-05-12T15:22:01.428Z,1.33
2019-05-12T15:24:30.872Z,1.30
2019-05-12T15:27:01.143Z,1.13
2019-05-12T15:29:33.646Z,1.40
2019-05-12T15:32:03.906Z,1.00
2019-05-12T15:34:34.332Z,1.20
2019-05-12T15:37:04.629Z,1.30
2019-05-12T15:39:34.815Z,1.20
2019-05-12T15:42:05.207Z,1.13
2019-05-12T15:44:36.972Z,1.00
2019-05-12T15:47:07.232Z,1.20
2019-05-12T15:49:37.494Z,1.10
2019-05-12T15:52:07.666Z,1.10
2019-05-12T15:54:45.695Z,1.00
2019-05-12T15:57:09.763Z,1.30
2019-05-12T15:59:39.808Z,1.40
2019-05-12T16:02:16.270Z,1.30
2019-05-12T16:04:43.097Z,1.40
2019-05-12T16:07:14.339Z,1.53
2019-05-12T16:09:45.656Z,1.10
2019-05-12T16:12:23.668Z,1.37
2019-05-12T16:14:47.896Z,1.20
2019-05-12T16:17:24.657Z,1.50
2019-05-12T16:19:49.996Z,1.30
2019-05-12T16:22:20.103Z,1.40
2019-05-12T16:24:50.508Z,1.07
2019-05-12T16:27:27.268Z,1.17
2019-05-12T16:29:53.484Z,1.27
2019-05-12T16:32:27.296Z,0.93
2019-05-12T16:34:55.601Z,1.47
2019-05-12T16:37:31.224Z,1.40
2019-05-12T16:39:57.539Z,1.20
2019-05-12T16:42:28.395Z,1.30
2019-05-12T16:45:05.908Z,1.20
2019-05-12T16:47:33.143Z,1.20
2019-05-12T16:50:06.234Z,1.07
2019-05-12T16:52:40.585Z,0.90
2019-05-12T16:55:06.694Z,1.10
2019-05-12T16:57:36.805Z,1.10
2019-05-12T17:00:07.374Z,1.00
2019-05-12T17:02:41.473Z,0.80
2019-05-12T17:05:15.647Z,0.80
2019-05-12T17:07:43.922Z,0.97
2019-05-12T17:10:16.599Z,1.00
2019-05-12T17:12:48.453Z,0.73
2019-05-12T17:15:18.894Z,1.10
2019-05-12T17:17:50.789Z,1.00
2019-05-12T17:20:21.256Z,0.97
2019-05-12T17:22:57.734Z,1.23
2019-05-12T17:25:29.550Z,1.07
2019-05-12T17:28:03.650Z,0.93
2019-05-12T17:30:34.238Z,1.07
2019-05-12T17:33:05.144Z,0.90
2019-05-12T17:35:35.724Z,0.90
2019-05-12T17:38:05.984Z,1.00
2019-05-12T17:40:36.275Z,1.00
2019-05-12T17:43:11.585Z,1.07
2019-05-12T17:45:38.568Z,1.10
2019-05-12T17:48:08.873Z,1.00
2019-05-12T17:50:40.662Z,1.10
2019-05-12T17:53:13.626Z,0.90
2019-05-12T17:56:16.658Z,1.00
2019-05-12T17:58:47.601Z,1.10
2019-05-12T18:01:23.099Z,0.90
2019-05-12T18:03:50.826Z,1.00
2019-05-12T18:06:29.118Z,1.33
2019-05-12T18:08:53.621Z,1.27
2019-05-12T18:11:24.048Z,1.30
2019-05-12T18:14:01.417Z,1.35
2019-05-12T18:16:27.246Z,1.10
2019-05-12T18:18:57.585Z,1.30
2019-05-12T18:21:30.995Z,1.00
2019-05-12T18:24:08.735Z,1.10
2019-05-12T18:26:33.859Z,1.10
2019-05-12T18:29:04.383Z,1.20
2019-05-12T18:31:34.641Z,1.07
2019-05-12T18:34:05.159Z,1.00
2019-05-12T18:36:35.367Z,1.03
2019-05-12T18:39:11.715Z,1.20
2019-05-12T18:41:39.921Z,1.23
2019-05-12T18:44:18.284Z,0.93
2019-05-12T18:46:46.738Z,1.00
2019-05-12T18:49:16.058Z,1.43
2019-05-12T18:51:49.149Z,1.40
2019-05-12T18:54:18.598Z,1.00
2019-05-12T18:56:52.611Z,0.90
2019-05-12T18:59:22.191Z,0.93
2019-05-12T19:01:54.107Z,0.90
2019-05-12T19:04:24.394Z,1.27
2019-05-12T19:06:54.673Z,1.30
2019-05-12T19:09:24.912Z,1.27
2019-05-12T19:11:56.250Z,1.10
2019-05-12T19:14:34.758Z,1.10
2019-05-12T19:16:58.396Z,1.00
2019-05-12T19:19:28.477Z,1.23
2019-05-12T19:22:06.855Z,1.30
2019-05-12T19:24:30.604Z,1.10
2019-05-12T19:27:01.175Z,1.13
2019-05-12T19:29:38.785Z,1.13
2019-05-12T19:32:04.566Z,1.20
2019-05-12T19:34:37.396Z,1.07
2019-05-12T19:37:07.066Z,1.10
2019-05-12T19:39:37.295Z,1.13
2019-05-12T19:42:10.441Z,1.50
2019-05-12T19:44:39.232Z,1.50
2019-05-12T19:47:09.281Z,1.27
2019-05-12T19:49:47.773Z,1.20
2019-05-12T19:52:11.311Z,1.27
2019-05-12T19:54:41.394Z,0.87
2019-05-12T19:57:15.576Z,1.03
2019-05-12T19:59:50.570Z,1.10
2019-05-12T20:02:15.969Z,1.30
2019-05-12T20:04:51.859Z,1.30
2019-05-12T20:07:18.261Z,1.33
2019-05-12T20:09:55.838Z,0.93
2019-05-12T20:12:24.122Z,1.27
2019-05-12T20:14:57.093Z,1.20
2019-05-12T20:17:26.638Z,1.30
2019-05-12T20:19:57.167Z,1.30
2019-05-12T20:22:27.415Z,1.30
2019-05-12T20:24:57.690Z,1.30
2019-05-12T20:27:27.937Z,1.20
2019-05-12T20:29:58.201Z,1.30
2019-05-12T20:32:28.580Z,1.57
2019-05-12T20:34:58.759Z,1.53
2019-05-12T20:37:28.888Z,1.57
2019-05-12T20:40:04.356Z,1.20
2019-05-12T20:42:42.042Z,1.90
2019-05-12T20:45:05.519Z,1.60
2019-05-12T20:47:38.912Z,1.73
2019-05-12T20:50:07.613Z,1.33
2019-05-12T20:52:39.277Z,1.93
2019-05-12T20:55:09.651Z,1.40
2019-05-12T20:57:49.503Z,1.13
2019-05-12T21:00:14.119Z,1.27
2019-05-12T21:02:44.444Z,1.13
2019-05-12T21:05:19.696Z,1.45
2019-05-12T21:07:46.950Z,1.03
2019-05-12T21:10:20.016Z,1.10
2019-05-12T21:12:50.160Z,1.20
2019-05-12T21:15:20.904Z,1.33
2019-05-12T21:17:58.061Z,1.53
2019-05-12T21:20:24.305Z,1.20
2019-05-12T21:22:54.683Z,1.17
2019-05-12T21:25:24.708Z,1.50
2019-05-12T21:28:02.701Z,1.40
2019-05-12T21:30:26.520Z,1.70
2019-05-12T21:33:01.412Z,1.40
2019-05-12T21:35:32.089Z,1.70
2019-05-12T21:38:00.136Z,1.53
2019-05-12T21:40:31.819Z,1.33
2019-05-12T21:43:04.011Z,1.43
2019-05-12T21:45:34.145Z,1.50
2019-05-12T21:48:04.328Z,1.57
2019-05-12T21:50:38.155Z,1.40
2019-05-12T21:53:10.170Z,1.60
2019-05-12T21:55:38.223Z,1.40
2019-05-12T21:58:12.033Z,2.00
2019-05-12T22:00:50.389Z,1.53
2019-05-12T22:03:17.855Z,1.50
2019-05-12T22:05:54.685Z,1.47
2019-05-12T22:08:23.085Z,1.70
2019-05-12T22:10:54.146Z,1.67
2019-05-12T22:13:24.472Z,1.73
2019-05-12T22:15:57.342Z,1.60
2019-05-12T22:18:26.530Z,1.37
2019-05-12T22:21:01.030Z,1.53
2019-05-12T22:23:28.755Z,1.60
2019-05-12T22:26:00.308Z,1.80
2019-05-12T22:28:30.616Z,1.40
2019-05-12T22:31:00.569Z,1.53
2019-05-12T22:33:30.662Z,1.50
2019-05-12T22:36:06.188Z,1.60
2019-05-12T22:38:34.039Z,1.70
2019-05-12T22:41:04.474Z,1.43
2019-05-12T22:43:41.024Z,1.87
2019-05-12T22:46:06.418Z,1.50
2019-05-12T22:48:40.452Z,1.47
2019-05-12T22:51:15.289Z,1.73
2019-05-12T22:53:40.247Z,1.33
2019-05-12T22:56:12.479Z,1.70
2019-05-12T22:58:44.182Z,1.50
2019-05-12T23:01:14.527Z,1.50
2019-05-12T23:03:51.510Z,1.22
2019-05-12T23:06:23.816Z,1.60
2019-05-12T23:08:49.535Z,1.50
2019-05-12T23:11:23.777Z,1.30
2019-05-12T23:13:53.316Z,1.60
2019-05-12T23:16:25.905Z,1.60
2019-05-12T23:18:55.266Z,1.20
2019-05-12T23:21:25.366Z,1.40
2019-05-12T23:23:57.463Z,1.23
2019-05-12T23:26:27.468Z,1.60
2019-05-12T23:28:57.630Z,1.37
2019-05-12T23:31:30.213Z,1.60
2019-05-12T23:33:59.433Z,1.23
2019-05-12T23:36:36.686Z,1.17
2019-05-12T23:39:02.832Z,1.50
2019-05-12T23:41:34.392Z,1.40
2019-05-12T23:44:04.576Z,1.33
2019-05-12T23:46:34.735Z,1.50
2019-05-12T23:49:04.838Z,1.20
2019-05-12T23:51:34.984Z,1.40
2019-05-12T23:54:05.208Z,1.10
2019-05-12T23:56:35.276Z,1.20
2019-05-12T23:59:05.451Z,1.37
